createdAt,value
2023-04-17T00:00:11.749Z,23.23
2023-04-17T00:03:01.902Z,24.20
2023-04-17T00:05:49.223Z,23.80
2023-04-17T00:08:36.678Z,22.93
2023-04-17T00:11:24.851Z,23.17
2023-04-17T00:14:12.019Z,23.00
2023-04-17T00:16:59.186Z,25.10
2023-04-17T00:19:47.559Z,24.27
2023-04-17T00:22:35.431Z,25.30
2023-04-17T00:25:22.728Z,27.10
2023-04-17T00:28:09.831Z,25.73
2023-04-17T00:30:59.323Z,25.30
2023-04-17T00:33:46.664Z,25.77
2023-04-17T00:36:34.311Z,26.03
2023-04-17T00:39:21.678Z,24.17
2023-04-17T00:42:08.884Z,24.27
2023-04-17T00:44:56.033Z,26.50
2023-04-17T00:47:43.768Z,26.10
2023-04-17T00:50:34.445Z,25.57
2023-04-17T00:53:22.218Z,26.37
2023-04-17T00:56:09.940Z,25.03
2023-04-17T00:58:59.050Z,24.80
2023-04-17T01:01:46.331Z,24.73
2023-04-17T01:04:33.531Z,26.67
2023-04-17T01:07:21.058Z,27.00
2023-04-17T01:10:09.753Z,25.97
2023-04-17T01:13:04.135Z,25.67
2023-04-17T01:15:51.436Z,25.53
2023-04-17T01:18:38.777Z,26.10
2023-04-17T01:21:25.962Z,26.97
2023-04-17T01:24:13.263Z,26.47
2023-04-17T01:27:01.055Z,24.47
2023-04-17T01:29:48.313Z,26.53
2023-04-17T01:32:35.695Z,27.37
2023-04-17T01:35:23.370Z,27.57
2023-04-17T01:38:10.594Z,25.90
2023-04-17T01:40:58.005Z,27.17
2023-04-17T01:43:46.751Z,26.77
2023-04-17T01:46:34.168Z,25.87
2023-04-17T01:49:21.581Z,26.43
2023-04-17T01:52:08.818Z,27.57
2023-04-17T01:54:56.009Z,27.93
2023-04-17T01:57:43.867Z,27.67
2023-04-17T02:00:31.074Z,28.07
2023-04-17T02:03:19.248Z,26.90
2023-04-17T02:06:07.716Z,27.10
2023-04-17T02:08:54.897Z,26.37
2023-04-17T02:11:42.216Z,27.83
2023-04-17T02:14:31.263Z,29.60
2023-04-17T02:17:18.442Z,27.87
2023-04-17T02:20:07.447Z,28.77
2023-04-17T02:22:55.417Z,27.50
2023-04-17T02:25:42.644Z,29.60
2023-04-17T02:28:29.786Z,27.50
2023-04-17T02:31:17.006Z,28.90
2023-04-17T02:34:04.316Z,30.13
2023-04-17T02:36:52.762Z,28.40
2023-04-17T02:39:39.895Z,29.60
2023-04-17T02:42:27.064Z,27.83
2023-04-17T02:45:14.277Z,29.97
2023-04-17T02:48:02.241Z,27.87
2023-04-17T02:50:49.519Z,28.90
2023-04-17T02:53:36.821Z,28.77
2023-04-17T02:56:23.997Z,29.50
2023-04-17T02:59:11.390Z,29.07
2023-04-17T03:01:59.881Z,30.87
2023-04-17T03:04:49.164Z,30.57
2023-04-17T03:07:36.416Z,29.20
2023-04-17T03:10:23.360Z,29.83
2023-04-17T03:13:10.655Z,29.30
2023-04-17T03:15:58.497Z,31.00
2023-04-17T03:18:45.545Z,28.20
2023-04-17T03:21:32.832Z,28.40
2023-04-17T03:24:20.558Z,29.63
2023-04-17T03:27:07.673Z,29.80
2023-04-17T03:29:56.281Z,27.70
2023-04-17T03:32:43.308Z,29.57
2023-04-17T03:35:30.480Z,28.03
2023-04-17T03:38:18.068Z,28.40
2023-04-17T03:41:05.345Z,29.83
2023-04-17T03:43:52.416Z,28.30
2023-04-17T03:46:39.431Z,29.17
2023-04-17T03:49:26.436Z,28.50
2023-04-17T03:52:13.488Z,29.50
2023-04-17T03:55:00.514Z,32.00
2023-04-17T03:57:49.814Z,29.40
2023-04-17T04:00:37.466Z,30.43
2023-04-17T04:03:28.414Z,29.30
2023-04-17T04:08:45.563Z,30.23
2023-04-17T04:11:33.334Z,30.70
2023-04-17T04:14:20.555Z,31.57
2023-04-17T04:17:07.710Z,28.23
2023-04-17T04:19:54.847Z,32.40
2023-04-17T04:22:44.732Z,29.30
2023-04-17T04:25:32.451Z,33.90
2023-04-17T04:28:19.645Z,30.30
2023-04-17T04:31:07.449Z,31.07
2023-04-17T04:33:55.415Z,29.67
2023-04-17T04:37:01.062Z,29.73
2023-04-17T04:39:53.958Z,31.40
2023-04-17T04:42:49.848Z,29.47
2023-04-17T04:45:37.279Z,31.20
2023-04-17T04:48:24.607Z,30.07
2023-04-17T04:51:12.207Z,32.00
2023-04-17T04:53:59.542Z,30.77
2023-04-17T04:56:46.894Z,31.87
2023-04-17T04:59:34.250Z,33.03
2023-04-17T05:02:21.578Z,32.30
2023-04-17T05:05:12.542Z,33.90
2023-04-17T05:07:59.744Z,32.47
2023-04-17T05:10:46.968Z,30.70
2023-04-17T05:13:34.524Z,32.33
2023-04-17T05:16:21.796Z,32.47
2023-04-17T05:19:09.082Z,32.00
2023-04-17T05:21:56.373Z,35.43
2023-04-17T05:24:43.643Z,32.80
2023-04-17T05:27:31.252Z,33.03
2023-04-17T05:30:18.491Z,32.03
2023-04-17T05:33:06.089Z,32.27
2023-04-17T05:35:55.992Z,31.87
2023-04-17T05:38:45.949Z,31.13
2023-04-17T05:41:33.429Z,31.10
2023-04-17T05:44:21.990Z,32.87
2023-04-17T05:47:09.500Z,33.30
2023-04-17T05:49:58.715Z,30.70
2023-04-17T05:52:48.324Z,30.77
2023-04-17T05:55:35.462Z,33.37
2023-04-17T05:58:24.525Z,31.83
2023-04-17T06:01:13.310Z,34.50
2023-04-17T06:04:02.153Z,30.77
2023-04-17T06:06:49.647Z,34.97
2023-04-17T06:09:37.379Z,33.03
2023-04-17T06:12:24.603Z,31.80
2023-04-17T06:15:12.374Z,31.50
2023-04-17T06:17:59.637Z,32.67
2023-04-17T06:20:47.333Z,31.43
2023-04-17T06:23:37.319Z,31.20
2023-04-17T06:26:24.451Z,34.13
2023-04-17T06:29:12.879Z,31.57
2023-04-17T06:32:00.369Z,30.40
2023-04-17T06:37:39.673Z,32.63
2023-04-17T06:40:26.920Z,32.63
2023-04-17T06:43:16.775Z,33.23
2023-04-17T06:46:03.985Z,31.73
2023-04-17T06:48:52.326Z,30.60
2023-04-17T06:51:39.535Z,32.83
2023-04-17T06:57:00.963Z,31.77
2023-04-17T06:59:27.900Z,33.43
2023-04-17T07:01:54.999Z,29.03
2023-04-17T07:04:22.021Z,31.43
2023-04-17T07:06:48.952Z,33.20
2023-04-17T07:09:16.463Z,30.93
2023-04-17T07:11:43.265Z,30.27
2023-04-17T07:14:12.721Z,29.50
2023-04-17T07:16:39.856Z,31.90
2023-04-17T07:19:14.064Z,31.10
2023-04-17T07:21:41.656Z,32.83
2023-04-17T07:24:09.173Z,29.40
2023-04-17T07:26:37.455Z,31.53
2023-04-17T07:29:04.456Z,29.00
2023-04-17T07:31:31.542Z,30.27
2023-04-17T07:33:58.381Z,31.90
2023-04-17T07:36:25.070Z,30.33
2023-04-17T07:38:51.935Z,28.97
2023-04-17T07:41:18.666Z,31.30
2023-04-17T07:43:45.307Z,29.20
2023-04-17T07:46:12.242Z,29.10
2023-04-17T07:48:39.804Z,28.90
2023-04-17T07:51:07.702Z,29.70
2023-04-17T07:53:36.278Z,31.53
2023-04-17T07:56:03.204Z,29.33
2023-04-17T07:58:29.894Z,31.10
2023-04-17T08:00:57.327Z,31.23
2023-04-17T08:03:25.849Z,29.63
2023-04-17T08:05:53.986Z,28.50
2023-04-17T08:08:22.807Z,27.97
2023-04-17T08:10:50.856Z,27.70
2023-04-17T08:13:17.630Z,27.07
2023-04-17T08:15:45.848Z,27.27
2023-04-17T08:18:13.090Z,27.30
2023-04-17T08:20:40.200Z,26.43
2023-04-17T08:23:07.265Z,25.80
2023-04-17T08:25:34.319Z,28.00
2023-04-17T08:28:01.794Z,27.17
2023-04-17T08:30:28.810Z,27.73
2023-04-17T08:32:57.879Z,27.80
2023-04-17T08:35:26.849Z,26.00
2023-04-17T08:37:56.050Z,24.83
2023-04-17T08:40:25.221Z,25.07
2023-04-17T08:42:54.348Z,26.10
2023-04-17T08:45:24.430Z,25.43
2023-04-17T08:48:11.773Z,25.43
2023-04-17T08:51:13.211Z,23.70
2023-04-17T08:56:43.771Z,24.50
2023-04-17T08:59:11.109Z,23.40
2023-04-17T09:01:39.073Z,22.97
2023-04-17T09:04:06.620Z,22.70
2023-04-17T09:06:49.948Z,24.17
2023-04-17T09:09:16.579Z,23.37
2023-04-17T09:11:43.393Z,22.67
2023-04-17T09:14:29.634Z,23.33
2023-04-17T09:16:57.773Z,23.07
2023-04-17T09:19:24.411Z,20.70
2023-04-17T09:21:51.225Z,21.67
2023-04-17T09:24:36.311Z,22.47
2023-04-17T09:27:26.267Z,22.20
2023-04-17T09:30:04.074Z,22.97
2023-04-17T09:32:33.060Z,22.20
2023-04-17T09:35:01.941Z,24.73
2023-04-17T09:37:53.325Z,21.70
2023-04-17T09:40:22.054Z,20.70
2023-04-17T09:43:03.765Z,18.97
2023-04-17T09:45:42.929Z,21.53
2023-04-17T09:48:12.006Z,21.27
2023-04-17T09:50:39.997Z,19.40
2023-04-17T09:53:07.896Z,19.40
2023-04-17T09:55:36.887Z,19.30
2023-04-17T09:58:07.457Z,18.87
2023-04-17T10:00:36.487Z,17.50
2023-04-17T10:03:03.901Z,17.60
2023-04-17T10:05:32.262Z,17.80
2023-04-17T10:07:59.056Z,18.23
2023-04-17T10:10:31.020Z,17.73
2023-04-17T10:13:01.298Z,17.10
2023-04-17T10:15:29.298Z,16.97
2023-04-17T10:18:16.190Z,16.70
2023-04-17T10:20:44.799Z,16.97
2023-04-17T10:23:32.464Z,17.27
2023-04-17T10:26:28.048Z,16.97
2023-04-17T10:28:57.894Z,16.13
2023-04-17T10:32:03.524Z,17.43
2023-04-17T10:34:38.046Z,16.70
2023-04-17T10:37:05.058Z,16.93
2023-04-17T10:39:51.790Z,18.43
2023-04-17T10:42:23.736Z,17.40
2023-04-17T10:44:51.869Z,17.13
2023-04-17T10:47:22.666Z,15.83
2023-04-17T10:50:00.664Z,16.37
2023-04-17T10:52:34.535Z,15.53
2023-04-17T10:55:20.733Z,16.37
2023-04-17T10:57:56.687Z,14.30
2023-04-17T11:00:50.777Z,14.93
2023-04-17T11:03:18.449Z,17.93
2023-04-17T11:05:47.143Z,16.00
2023-04-17T11:08:14.879Z,15.67
2023-04-17T11:10:41.626Z,15.53
2023-04-17T11:13:08.352Z,15.40
2023-04-17T11:15:35.768Z,15.17
2023-04-17T11:18:03.671Z,12.93
2023-04-17T11:20:33.673Z,13.30
2023-04-17T11:23:04.539Z,14.60
2023-04-17T11:25:34.413Z,14.43
2023-04-17T11:28:05.495Z,14.30
2023-04-17T11:30:40.649Z,14.40
2023-04-17T11:33:08.594Z,13.10
2023-04-17T11:35:37.465Z,13.97
2023-04-17T11:38:22.126Z,13.03
2023-04-17T11:40:56.233Z,12.07
2023-04-17T11:43:24.065Z,13.43
2023-04-17T11:45:56.617Z,12.60
2023-04-17T11:48:28.964Z,13.80
2023-04-17T11:51:03.646Z,13.57
2023-04-17T11:53:31.196Z,12.43
2023-04-17T11:56:23.052Z,13.20
2023-04-17T11:58:52.760Z,13.70
2023-04-17T12:01:25.101Z,13.80
2023-04-17T12:03:53.738Z,13.40
2023-04-17T12:06:21.692Z,13.40
2023-04-17T12:08:53.819Z,12.57
2023-04-17T12:11:25.544Z,12.90
2023-04-17T12:13:53.715Z,12.97
2023-04-17T12:16:21.845Z,12.27
2023-04-17T12:18:48.605Z,11.43
2023-04-17T12:21:15.361Z,11.87
2023-04-17T12:23:42.532Z,12.33
2023-04-17T12:26:09.797Z,11.93
2023-04-17T12:28:36.844Z,11.60
2023-04-17T12:31:04.594Z,11.30
2023-04-17T12:33:32.771Z,10.73
2023-04-17T12:36:03.341Z,11.00
2023-04-17T12:38:30.993Z,10.77
2023-04-17T12:40:57.899Z,10.93
2023-04-17T12:43:24.915Z,10.03
2023-04-17T12:45:53.230Z,11.63
2023-04-17T12:48:20.330Z,10.67
2023-04-17T12:50:47.116Z,12.13
2023-04-17T12:53:14.469Z,11.63
2023-04-17T12:55:42.304Z,11.13
2023-04-17T12:58:11.079Z,11.23
2023-04-17T13:00:39.897Z,10.73
2023-04-17T13:03:06.876Z,11.17
2023-04-17T13:05:33.609Z,12.07
2023-04-17T13:08:00.475Z,11.53
2023-04-17T13:10:27.860Z,12.00
2023-04-17T13:12:54.637Z,11.90
2023-04-17T13:15:21.757Z,11.67
2023-04-17T13:17:48.555Z,11.17
2023-04-17T13:20:15.509Z,10.70
2023-04-17T13:22:42.230Z,10.87
2023-04-17T13:25:09.574Z,10.20
2023-04-17T13:27:37.499Z,11.20
2023-04-17T13:30:05.192Z,10.43
2023-04-17T13:32:32.151Z,10.30
2023-04-17T13:34:59.069Z,10.00
2023-04-17T13:37:26.008Z,10.47
2023-04-17T13:39:52.790Z,9.70
2023-04-17T13:42:20.332Z,9.73
2023-04-17T13:44:47.010Z,10.90
2023-04-17T13:47:14.013Z,10.67
2023-04-17T13:49:40.783Z,9.10
2023-04-17T13:52:07.849Z,11.13
2023-04-17T13:54:34.575Z,8.90
2023-04-17T13:57:01.611Z,10.23
2023-04-17T13:59:28.376Z,9.03
2023-04-17T14:01:55.218Z,8.77
2023-04-17T14:04:22.334Z,9.77
2023-04-17T14:06:51.329Z,9.07
2023-04-17T14:09:18.211Z,9.00
2023-04-17T14:11:44.923Z,8.30
2023-04-17T14:14:12.762Z,9.03
2023-04-17T14:16:43.551Z,9.27
2023-04-17T14:19:13.754Z,10.20
2023-04-17T14:21:41.541Z,10.20
2023-04-17T14:24:08.797Z,9.33
2023-04-17T14:26:37.330Z,8.20
2023-04-17T14:29:04.596Z,7.60
2023-04-17T14:31:31.862Z,8.90
2023-04-17T14:33:58.798Z,8.63
2023-04-17T14:36:26.185Z,8.80
2023-04-17T14:38:54.257Z,8.43
2023-04-17T14:41:21.416Z,8.30
2023-04-17T14:43:48.219Z,8.83
2023-04-17T14:46:15.270Z,8.33
2023-04-17T14:48:55.004Z,8.50
2023-04-17T14:51:23.589Z,8.63
2023-04-17T14:53:52.891Z,8.00
2023-04-17T14:56:21.433Z,8.77
2023-04-17T14:58:48.291Z,8.10
2023-04-17T15:03:47.423Z,8.30
2023-04-17T15:06:15.229Z,8.30
2023-04-17T15:08:43.415Z,9.17
2023-04-17T15:11:10.370Z,10.43
2023-04-17T15:13:37.548Z,9.50
2023-04-17T15:16:04.784Z,9.17
2023-04-17T15:18:31.978Z,10.20
2023-04-17T15:20:58.796Z,8.80
2023-04-17T15:23:26.411Z,9.10
2023-04-17T15:25:55.313Z,8.40
2023-04-17T15:28:22.040Z,8.37
2023-04-17T15:30:51.129Z,8.97
2023-04-17T15:33:17.779Z,8.23
2023-04-17T15:35:44.520Z,9.60
2023-04-17T15:38:12.083Z,10.00
2023-04-17T15:40:38.906Z,9.80
2023-04-17T15:43:05.571Z,10.57
2023-04-17T15:45:32.486Z,10.70
2023-04-17T15:48:01.123Z,9.90
2023-04-17T15:50:27.940Z,10.63
2023-04-17T15:52:54.736Z,10.67
2023-04-17T15:55:21.516Z,10.43
2023-04-17T15:57:48.684Z,10.87
2023-04-17T16:00:15.965Z,11.07
2023-04-17T16:02:42.722Z,10.33
2023-04-17T16:05:10.031Z,9.83
2023-04-17T16:07:36.674Z,9.77
2023-04-17T16:10:03.529Z,9.47
2023-04-17T16:12:30.245Z,10.00
2023-04-17T16:14:57.361Z,10.13
2023-04-17T16:17:24.043Z,8.70
2023-04-17T16:19:51.019Z,10.67
2023-04-17T16:22:19.300Z,10.20
2023-04-17T16:24:47.088Z,10.37
2023-04-17T16:27:13.779Z,10.90
2023-04-17T16:29:41.085Z,10.20
2023-04-17T16:32:07.821Z,9.77
2023-04-17T16:34:34.674Z,9.23
2023-04-17T16:37:03.861Z,9.73
2023-04-17T16:39:30.791Z,10.00
2023-04-17T16:41:57.719Z,9.30
2023-04-17T16:44:26.759Z,9.10
2023-04-17T16:49:24.820Z,11.23
2023-04-17T16:51:51.875Z,12.67
2023-04-17T16:54:20.459Z,14.57
2023-04-17T16:56:50.656Z,17.77
2023-04-17T16:59:17.337Z,10.90
2023-04-17T17:01:44.247Z,10.30
2023-04-17T17:04:10.918Z,9.80
2023-04-17T17:06:37.918Z,10.20
2023-04-17T17:09:04.648Z,9.77
2023-04-17T17:11:31.426Z,9.33
2023-04-17T17:13:58.141Z,8.83
2023-04-17T17:16:25.457Z,10.57
2023-04-17T17:18:52.188Z,9.30
2023-04-17T17:21:19.599Z,9.47
2023-04-17T17:23:46.301Z,9.33
2023-04-17T17:26:13.182Z,8.70
2023-04-17T17:28:39.908Z,9.23
2023-04-17T17:31:07.961Z,9.90
2023-04-17T17:33:37.054Z,8.77
2023-04-17T17:36:03.934Z,9.43
2023-04-17T17:38:32.884Z,10.40
2023-04-17T17:40:59.651Z,10.50
2023-04-17T17:43:28.450Z,9.63
2023-04-17T17:45:55.204Z,10.37
2023-04-17T17:48:22.060Z,10.10
2023-04-17T17:50:52.710Z,9.50
2023-04-17T17:53:21.421Z,10.03
2023-04-17T17:55:53.908Z,9.30
2023-04-17T17:58:21.676Z,11.40
2023-04-17T18:00:51.653Z,10.90
2023-04-17T18:03:19.184Z,11.43
2023-04-17T18:05:46.781Z,9.90
2023-04-17T18:08:14.212Z,10.70
2023-04-17T18:10:40.939Z,10.70
2023-04-17T18:13:07.793Z,11.07
2023-04-17T18:15:35.627Z,11.30
2023-04-17T18:18:02.370Z,11.37
2023-04-17T18:20:29.567Z,10.93
2023-04-17T18:22:56.571Z,11.63
2023-04-17T18:25:23.420Z,11.37
2023-04-17T18:27:50.107Z,11.93
2023-04-17T18:30:16.886Z,11.40
2023-04-17T18:32:43.641Z,10.37
2023-04-17T18:35:10.484Z,12.40
2023-04-17T18:37:37.940Z,12.17
2023-04-17T18:40:07.226Z,12.70
2023-04-17T18:42:34.289Z,12.37
2023-04-17T18:45:01.052Z,12.37
2023-04-17T18:47:27.949Z,13.67
2023-04-17T18:49:54.709Z,13.50
2023-04-17T18:52:21.589Z,12.73
2023-04-17T18:54:48.608Z,13.87
2023-04-17T18:57:15.494Z,13.50
2023-04-17T18:59:43.373Z,13.20
2023-04-17T19:02:10.563Z,13.33
2023-04-17T19:04:37.482Z,12.80
2023-04-17T19:07:04.867Z,14.77
2023-04-17T19:09:31.598Z,13.40
2023-04-17T19:11:58.481Z,14.07
2023-04-17T19:14:25.277Z,13.37
2023-04-17T19:16:52.262Z,15.60
2023-04-17T19:19:19.007Z,13.37
2023-04-17T19:21:46.016Z,14.17
2023-04-17T19:24:12.754Z,13.43
2023-04-17T19:26:39.734Z,13.57
2023-04-17T19:29:06.487Z,14.00
2023-04-17T19:31:34.028Z,14.23
2023-04-17T19:34:01.740Z,13.90
2023-04-17T19:36:28.915Z,13.57
2023-04-17T19:38:59.118Z,13.70
2023-04-17T19:41:26.317Z,15.10
2023-04-17T19:43:54.820Z,15.43
2023-04-17T19:46:23.276Z,14.17
2023-04-17T19:48:50.812Z,13.27
2023-04-17T19:51:18.188Z,14.00
2023-04-17T19:53:46.692Z,15.30
2023-04-17T19:56:13.683Z,12.80
2023-04-17T19:58:41.824Z,12.87
2023-04-17T20:01:08.629Z,12.90
2023-04-17T20:03:38.313Z,12.77
2023-04-17T20:06:05.593Z,12.10
2023-04-17T20:08:32.297Z,12.93
2023-04-17T20:10:59.718Z,13.23
2023-04-17T20:13:27.836Z,13.17
2023-04-17T20:15:54.880Z,12.70
2023-04-17T20:18:21.684Z,12.90
2023-04-17T20:20:48.825Z,13.07
2023-04-17T20:23:15.767Z,14.07
2023-04-17T20:25:43.331Z,14.00
2023-04-17T20:28:10.080Z,13.03
2023-04-17T20:30:36.761Z,12.90
2023-04-17T20:33:03.639Z,13.83
2023-04-17T20:35:30.712Z,13.90
2023-04-17T20:37:58.633Z,14.33
2023-04-17T20:40:25.464Z,13.73
2023-04-17T20:42:52.202Z,14.17
2023-04-17T20:45:19.273Z,13.87
2023-04-17T20:47:56.644Z,13.80
2023-04-17T20:50:25.347Z,14.47
2023-04-17T20:52:52.592Z,15.73
2023-04-17T20:55:20.140Z,15.47
2023-04-17T20:57:47.735Z,14.60
2023-04-17T21:00:14.890Z,15.17
2023-04-17T21:02:42.128Z,14.97
2023-04-17T21:05:09.548Z,14.70
2023-04-17T21:07:37.424Z,15.20
2023-04-17T21:10:04.493Z,14.13
2023-04-17T21:12:32.963Z,14.27
2023-04-17T21:15:00.624Z,13.63
2023-04-17T21:17:27.426Z,13.33
2023-04-17T21:19:56.112Z,14.37
2023-04-17T21:22:22.933Z,14.27
2023-04-17T21:24:49.749Z,13.30
2023-04-17T21:27:16.446Z,13.80
2023-04-17T21:29:43.129Z,14.07
2023-04-17T21:32:09.856Z,13.33
2023-04-17T21:34:36.589Z,13.47
2023-04-17T21:37:04.979Z,13.00
2023-04-17T21:39:33.384Z,13.70
2023-04-17T21:42:01.442Z,14.03
2023-04-17T21:44:28.524Z,14.27
2023-04-17T21:46:55.996Z,13.40
2023-04-17T21:49:22.767Z,14.43
2023-04-17T21:51:49.542Z,13.97
2023-04-17T21:54:16.662Z,14.90
2023-04-17T21:56:43.338Z,15.30
2023-04-17T21:59:10.178Z,15.30
2023-04-17T22:01:37.123Z,15.73
2023-04-17T22:04:04.177Z,16.87
2023-04-17T22:06:34.324Z,15.33
2023-04-17T22:09:01.848Z,16.07
2023-04-17T22:11:28.544Z,14.27
2023-04-17T22:13:55.220Z,14.60
2023-04-17T22:16:21.896Z,13.77
2023-04-17T22:18:51.054Z,13.07
2023-04-17T22:21:18.233Z,13.87
2023-04-17T22:23:45.052Z,11.80
2023-04-17T22:26:11.802Z,11.40
2023-04-17T22:28:38.646Z,11.77
2023-04-17T22:31:05.732Z,12.17
2023-04-17T22:33:32.844Z,11.80
2023-04-17T22:35:59.926Z,10.87
2023-04-17T22:38:26.591Z,10.90
2023-04-17T22:40:54.953Z,11.40
2023-04-17T22:43:21.564Z,10.50
2023-04-17T22:45:48.676Z,11.43
2023-04-17T22:48:15.378Z,11.40
2023-04-17T22:50:42.741Z,11.10
2023-04-17T22:53:09.675Z,10.73
2023-04-17T22:55:36.516Z,10.80
2023-04-17T22:58:03.708Z,10.73
2023-04-17T23:00:31.776Z,10.10
2023-04-17T23:02:58.592Z,11.60
2023-04-17T23:05:25.471Z,11.20
2023-04-17T23:07:52.362Z,9.83
2023-04-17T23:10:20.187Z,9.93
2023-04-17T23:12:46.896Z,11.70
2023-04-17T23:15:14.221Z,11.40
2023-04-17T23:17:40.994Z,11.23
2023-04-17T23:20:08.244Z,11.37
2023-04-17T23:22:35.053Z,11.07
2023-04-17T23:25:01.792Z,11.03
2023-04-17T23:27:28.644Z,11.20
2023-04-17T23:29:55.261Z,11.07
2023-04-17T23:32:22.149Z,9.83
2023-04-17T23:34:48.837Z,10.10
2023-04-17T23:37:16.299Z,10.80
2023-04-17T23:39:43.035Z,11.20
2023-04-17T23:42:10.106Z,9.37
2023-04-17T23:44:36.756Z,11.03
2023-04-17T23:47:04.337Z,10.03
2023-04-17T23:49:31.155Z,10.23
2023-04-17T23:51:58.093Z,10.03
2023-04-17T23:54:24.717Z,10.70
2023-04-17T23:56:51.480Z,10.20
2023-04-17T23:59:18.188Z,11.03
